createdAt,value
2022-11-20T00:01:52.971Z,32.17
2022-11-20T00:04:29.123Z,29.83
2022-11-20T00:07:00.924Z,33.28
2022-11-20T00:09:35.775Z,27.95
2022-11-20T00:12:10.297Z,30.80
2022-11-20T00:14:43.083Z,30.98
2022-11-20T00:17:10.500Z,25.75
2022-11-20T00:19:39.580Z,30.75
2022-11-20T00:22:06.387Z,32.00
2022-11-20T00:24:42.981Z,32.10
2022-11-20T00:27:11.910Z,23.48
2022-11-20T00:29:44.221Z,29.42
2022-11-20T00:32:11.058Z,27.73
2022-11-20T00:34:37.666Z,24.02
2022-11-20T00:37:07.458Z,23.60
2022-11-20T00:39:34.267Z,25.50
2022-11-20T00:42:09.391Z,26.05
2022-11-20T00:44:40.082Z,26.23
2022-11-20T00:47:08.455Z,28.50
2022-11-20T00:49:48.732Z,26.40
2022-11-20T00:52:15.432Z,26.23
2022-11-20T00:54:42.040Z,22.52
2022-11-20T00:57:11.343Z,21.90
2022-11-20T00:59:38.006Z,24.55
2022-11-20T01:02:04.546Z,27.45
2022-11-20T01:04:35.164Z,27.08
2022-11-20T01:07:03.606Z,22.95
2022-11-20T01:09:30.314Z,25.15
2022-11-20T01:11:57.284Z,27.55
2022-11-20T01:14:23.914Z,26.90
2022-11-20T01:16:51.972Z,23.75
2022-11-20T01:19:22.372Z,27.88
2022-11-20T01:21:53.819Z,21.65
2022-11-20T01:24:22.571Z,24.88
2022-11-20T01:26:51.394Z,24.17
2022-11-20T01:29:24.743Z,27.85
2022-11-20T01:31:53.399Z,23.58
2022-11-20T01:34:21.656Z,29.10
2022-11-20T01:36:51.791Z,23.42
2022-11-20T01:39:24.562Z,24.38
2022-11-20T01:42:18.647Z,22.83
2022-11-20T01:45:01.502Z,22.30
2022-11-20T01:47:54.221Z,26.33
2022-11-20T01:50:31.288Z,24.30
2022-11-20T01:53:20.130Z,26.02
2022-11-20T01:55:51.557Z,23.90
2022-11-20T01:58:26.019Z,27.48
2022-11-20T02:00:53.792Z,25.98
2022-11-20T02:03:21.642Z,26.02
2022-11-20T02:06:20.437Z,26.77
2022-11-20T02:08:46.987Z,25.40
2022-11-20T02:11:19.300Z,23.10
2022-11-20T02:13:47.120Z,24.90
2022-11-20T02:16:15.880Z,27.20
2022-11-20T02:18:46.165Z,19.65
2022-11-20T02:21:19.953Z,19.20
2022-11-20T02:24:16.410Z,27.58
2022-11-20T02:27:02.372Z,21.63
2022-11-20T02:29:38.480Z,27.88
2022-11-20T02:32:05.458Z,27.20
2022-11-20T02:34:32.428Z,26.27
2022-11-20T02:37:00.601Z,20.90
2022-11-20T02:39:29.390Z,21.83
2022-11-20T02:41:57.608Z,22.40
2022-11-20T02:44:24.296Z,24.58
2022-11-20T02:46:55.232Z,24.38
2022-11-20T02:49:24.182Z,24.58
2022-11-20T02:51:52.540Z,25.45
2022-11-20T02:54:19.255Z,26.45
2022-11-20T02:56:48.912Z,24.63
2022-11-20T02:59:21.298Z,29.20
2022-11-20T03:04:17.952Z,28.35
2022-11-20T03:06:44.681Z,25.88
2022-11-20T03:09:11.299Z,21.10
2022-11-20T03:11:37.903Z,25.08
2022-11-20T03:14:05.397Z,24.60
2022-11-20T03:16:33.229Z,27.67
2022-11-20T03:19:00.433Z,25.00
2022-11-20T03:21:27.126Z,25.58
2022-11-20T03:23:55.107Z,22.70
2022-11-20T03:26:31.374Z,26.25
2022-11-20T03:29:00.682Z,23.98
2022-11-20T03:31:42.130Z,25.65
2022-11-20T03:34:17.574Z,20.50
2022-11-20T03:36:45.356Z,22.38
2022-11-20T03:39:12.148Z,25.17
2022-11-20T03:41:44.454Z,26.20
2022-11-20T03:47:00.255Z,21.35
2022-11-20T03:49:30.642Z,25.27
2022-11-20T03:51:58.390Z,24.67
2022-11-20T03:54:32.907Z,21.35
2022-11-20T03:56:59.521Z,22.05
2022-11-20T03:59:26.250Z,22.08
2022-11-20T04:01:52.818Z,22.85
2022-11-20T04:04:19.715Z,26.38
2022-11-20T04:06:47.033Z,25.65
2022-11-20T04:09:16.768Z,25.52
2022-11-20T04:11:43.343Z,24.40
2022-11-20T04:14:17.226Z,29.85
2022-11-20T04:16:44.409Z,28.65
2022-11-20T04:19:19.038Z,27.45
2022-11-20T04:21:46.702Z,29.83
2022-11-20T04:24:15.672Z,28.23
2022-11-20T04:26:51.110Z,23.52
2022-11-20T04:29:17.864Z,29.10
2022-11-20T04:31:47.697Z,25.92
2022-11-20T04:34:14.400Z,30.10
2022-11-20T04:36:43.821Z,29.67
2022-11-20T04:39:16.713Z,25.63
2022-11-20T04:41:43.744Z,26.58
2022-11-20T04:44:12.657Z,25.50
2022-11-20T04:46:48.829Z,22.25
2022-11-20T04:49:18.562Z,20.48
2022-11-20T04:51:45.324Z,30.00
2022-11-20T04:54:15.307Z,24.60
2022-11-20T04:56:48.920Z,30.83
2022-11-20T04:59:27.913Z,27.40
2022-11-20T05:02:08.228Z,32.85
2022-11-20T05:04:38.773Z,28.40
2022-11-20T05:07:22.962Z,29.25
2022-11-20T05:10:04.420Z,33.45
2022-11-20T05:12:36.288Z,33.53
2022-11-20T05:15:04.959Z,34.42
2022-11-20T05:17:38.781Z,28.45
2022-11-20T05:20:18.477Z,25.95
2022-11-20T05:22:59.138Z,32.60
2022-11-20T05:25:26.570Z,34.22
2022-11-20T05:28:12.221Z,33.25
2022-11-20T05:30:52.885Z,33.40
2022-11-20T05:33:25.601Z,23.42
2022-11-20T05:36:07.914Z,28.98
2022-11-20T05:38:58.054Z,25.08
2022-11-20T05:41:38.407Z,30.33
2022-11-20T05:44:25.871Z,30.48
2022-11-20T05:46:57.565Z,30.17
2022-11-20T05:49:39.894Z,30.48
2022-11-20T05:52:18.036Z,32.90
2022-11-20T05:54:57.986Z,30.05
2022-11-20T05:57:28.497Z,29.30
2022-11-20T06:00:10.789Z,23.27
2022-11-20T06:02:39.762Z,25.08
2022-11-20T06:05:14.142Z,29.40
2022-11-20T06:07:41.241Z,33.00
2022-11-20T06:10:08.654Z,36.05
2022-11-20T06:12:43.892Z,32.80
2022-11-20T06:15:25.568Z,29.55
2022-11-20T06:18:10.009Z,28.30
2022-11-20T06:20:42.211Z,29.95
2022-11-20T06:23:26.933Z,35.08
2022-11-20T06:26:03.791Z,30.98
2022-11-20T06:28:39.109Z,34.63
2022-11-20T06:31:47.507Z,29.02
2022-11-20T06:34:15.841Z,29.85
2022-11-20T06:57:56.080Z,28.75
2022-11-20T07:00:22.691Z,36.67
2022-11-20T07:02:49.323Z,32.75
2022-11-20T07:05:22.802Z,35.63
2022-11-20T07:07:51.321Z,37.42
2022-11-20T07:10:29.239Z,21.55
2022-11-20T07:12:57.900Z,32.90
2022-11-20T07:15:30.933Z,34.35
2022-11-20T07:18:01.773Z,34.88
2022-11-20T07:20:31.317Z,34.38
2022-11-20T07:22:59.579Z,27.83
2022-11-20T07:25:35.530Z,26.50
2022-11-20T07:28:06.100Z,29.45
2022-11-20T07:30:35.139Z,32.45
2022-11-20T07:33:01.842Z,33.67
2022-11-20T07:35:34.989Z,33.75
2022-11-20T07:38:02.875Z,26.27
2022-11-20T07:40:29.587Z,29.95
2022-11-20T07:42:57.159Z,27.52
2022-11-20T07:45:37.012Z,24.02
2022-11-20T07:48:10.888Z,32.45
2022-11-20T07:50:37.658Z,31.40
2022-11-20T07:53:08.904Z,33.00
2022-11-20T07:55:38.663Z,28.90
2022-11-20T07:58:05.487Z,30.63
2022-11-20T08:00:32.114Z,31.30
2022-11-20T08:02:58.725Z,31.80
2022-11-20T08:05:25.259Z,31.67
2022-11-20T08:07:54.356Z,25.55
2022-11-20T08:10:20.986Z,28.52
2022-11-20T08:13:08.011Z,30.38
2022-11-20T08:15:38.508Z,24.77
2022-11-20T08:20:56.717Z,25.38
2022-11-20T08:23:26.398Z,28.55
2022-11-20T08:25:53.075Z,26.58
2022-11-20T08:28:21.806Z,26.52
2022-11-20T08:30:49.242Z,27.60
2022-11-20T08:33:16.161Z,20.60
2022-11-20T08:35:45.111Z,24.52
2022-11-20T08:38:13.716Z,25.45
2022-11-20T08:41:03.383Z,30.92
2022-11-20T08:43:30.144Z,25.27
2022-11-20T08:46:01.595Z,22.38
2022-11-20T08:48:38.799Z,22.10
2022-11-20T08:51:08.549Z,28.42
2022-11-20T08:53:38.157Z,26.52
2022-11-20T08:56:16.813Z,24.17
2022-11-20T08:59:15.418Z,28.35
2022-11-20T09:01:30.711Z,19.90
2022-11-20T09:04:00.669Z,26.77
2022-11-20T09:06:39.287Z,24.17
2022-11-20T09:09:13.031Z,18.65
2022-11-20T09:11:39.957Z,25.98
2022-11-20T09:14:07.240Z,22.75
2022-11-20T09:16:48.012Z,27.58
2022-11-20T09:22:04.939Z,27.98
2022-11-20T09:24:35.600Z,28.25
2022-11-20T09:27:08.701Z,27.30
2022-11-20T09:29:38.131Z,28.10
2022-11-20T09:32:11.985Z,23.65
2022-11-20T09:34:51.319Z,22.88
2022-11-20T09:37:20.848Z,20.77
2022-11-20T09:39:47.560Z,20.80
2022-11-20T09:42:18.807Z,26.73
2022-11-20T09:45:10.479Z,28.92
2022-11-20T09:47:47.343Z,28.33
2022-11-20T09:50:49.342Z,22.92
2022-11-20T09:53:47.008Z,24.63
2022-11-20T09:56:22.916Z,26.55
2022-11-20T09:58:58.839Z,27.70
2022-11-20T10:01:39.316Z,29.30
2022-11-20T10:04:17.890Z,28.00
2022-11-20T10:07:33.600Z,31.38
2022-11-20T10:10:03.869Z,30.73
2022-11-20T10:12:52.095Z,26.23
2022-11-20T10:15:25.877Z,20.42
2022-11-20T10:18:31.463Z,23.67
2022-11-20T10:21:26.643Z,29.92
2022-11-20T10:24:15.022Z,20.52
2022-11-20T10:27:08.611Z,24.42
2022-11-20T10:29:42.568Z,31.63
2022-11-20T10:32:23.584Z,21.33
2022-11-20T10:35:12.411Z,29.77
2022-11-20T10:37:45.606Z,29.05
2022-11-20T10:40:38.114Z,31.55
2022-11-20T10:43:42.423Z,30.20
2022-11-20T10:46:29.799Z,25.13
2022-11-20T10:49:03.001Z,25.92
2022-11-20T10:51:47.847Z,34.53
2022-11-20T10:54:37.710Z,34.17
2022-11-20T10:57:30.763Z,27.88
2022-11-20T11:00:21.037Z,33.47
2022-11-20T11:02:58.874Z,20.70
2022-11-20T11:05:51.586Z,22.70
2022-11-20T11:08:24.551Z,27.73
2022-11-20T11:11:02.732Z,26.65
2022-11-20T11:13:35.407Z,32.47
2022-11-20T11:16:05.435Z,37.80
2022-11-20T11:18:35.926Z,35.40
2022-11-20T11:21:05.158Z,35.03
2022-11-20T11:23:40.886Z,34.40
2022-11-20T11:26:43.807Z,31.50
2022-11-20T11:29:36.525Z,31.83
2022-11-20T11:32:26.580Z,26.45
2022-11-20T11:35:11.613Z,31.05
2022-11-20T11:37:46.170Z,35.95
2022-11-20T11:40:23.337Z,27.55
2022-11-20T11:43:26.973Z,26.27
2022-11-20T11:45:59.097Z,24.15
2022-11-20T11:48:25.983Z,22.95
2022-11-20T11:50:55.477Z,24.70
2022-11-20T11:53:30.477Z,26.05
2022-11-20T11:56:17.586Z,24.35
2022-11-20T11:58:54.869Z,27.92
2022-11-20T12:01:32.838Z,29.35
2022-11-20T12:04:01.513Z,24.27
2022-11-20T12:06:35.706Z,19.85
2022-11-20T12:09:19.388Z,28.02
2022-11-20T12:11:56.879Z,19.50
2022-11-20T12:14:37.603Z,23.38
2022-11-20T12:17:05.007Z,22.92
2022-11-20T12:19:37.884Z,23.38
2022-11-20T12:22:34.101Z,25.02
2022-11-20T12:25:20.657Z,17.67
2022-11-20T12:28:17.284Z,18.27
2022-11-20T12:31:17.060Z,18.23
2022-11-20T12:34:00.262Z,21.58
2022-11-20T12:36:53.155Z,23.60
2022-11-20T12:42:26.591Z,18.73
2022-11-20T12:45:16.072Z,20.73
2022-11-20T12:48:21.581Z,23.38
2022-11-20T12:51:15.255Z,18.13
2022-11-20T12:54:25.140Z,16.73
2022-11-20T12:57:04.150Z,17.05
2022-11-20T12:59:54.503Z,15.13
2022-11-20T13:03:00.752Z,16.23
2022-11-20T13:05:46.650Z,15.48
2022-11-20T13:08:43.138Z,14.15
2022-11-20T13:11:26.358Z,13.35
2022-11-20T13:13:53.201Z,12.98
2022-11-20T13:17:04.767Z,13.82
2022-11-20T13:19:33.346Z,13.93
2022-11-20T13:22:00.148Z,13.50
2022-11-20T13:24:31.203Z,12.80
2022-11-20T13:27:17.040Z,12.77
2022-11-20T13:29:50.220Z,12.68
2022-11-20T13:32:20.930Z,12.00
2022-11-20T13:35:01.072Z,11.77
2022-11-20T13:37:41.987Z,11.32
2022-11-20T13:40:18.280Z,10.30
2022-11-20T13:43:30.411Z,10.77
2022-11-20T13:46:17.628Z,10.85
2022-11-20T13:48:52.116Z,10.95
2022-11-20T13:51:46.176Z,10.82
2022-11-20T13:54:38.178Z,11.23
2022-11-20T13:57:42.007Z,8.43
2022-11-20T14:00:29.880Z,11.50
2022-11-20T14:03:08.639Z,8.40
2022-11-20T14:05:52.444Z,11.32
2022-11-20T14:08:37.195Z,8.52
2022-11-20T14:11:31.982Z,9.50
2022-11-20T14:14:21.618Z,9.82
2022-11-20T14:17:40.430Z,10.10
2022-11-20T14:20:28.423Z,10.18
2022-11-20T14:23:05.480Z,8.43
2022-11-20T14:25:34.391Z,8.38
2022-11-20T14:28:08.069Z,9.00
2022-11-20T14:30:50.280Z,7.15
2022-11-20T14:33:27.752Z,9.40
2022-11-20T14:35:59.093Z,7.35
2022-11-20T14:38:44.646Z,8.20
2022-11-20T14:41:21.874Z,6.75
2022-11-20T14:44:03.814Z,9.02
2022-11-20T14:46:37.289Z,6.95
2022-11-20T14:49:08.519Z,8.52
2022-11-20T14:51:48.951Z,6.45
2022-11-20T14:54:32.981Z,5.75
2022-11-20T14:57:07.302Z,9.18
2022-11-20T14:59:35.783Z,7.45
2022-11-20T15:02:22.642Z,9.15
2022-11-20T15:05:02.349Z,8.55
2022-11-20T15:07:37.565Z,9.25
2022-11-20T15:10:25.255Z,8.65
2022-11-20T15:13:01.968Z,8.48
2022-11-20T15:15:53.785Z,6.30
2022-11-20T15:18:40.480Z,6.70
2022-11-20T15:21:29.172Z,8.70
2022-11-20T15:23:56.198Z,9.48
2022-11-20T15:26:28.306Z,8.85
2022-11-20T15:29:03.939Z,8.75
2022-11-20T15:31:30.534Z,6.95
2022-11-20T15:34:06.068Z,8.70
2022-11-20T15:36:34.767Z,6.25
2022-11-20T15:39:26.836Z,9.18
2022-11-20T15:41:54.773Z,8.55
2022-11-20T15:44:46.051Z,9.65
2022-11-20T15:47:23.192Z,9.33
2022-11-20T15:49:58.675Z,8.13
2022-11-20T15:52:40.353Z,8.68
2022-11-20T15:55:16.156Z,10.48
2022-11-20T15:57:42.833Z,10.63
2022-11-20T16:00:12.098Z,9.70
2022-11-20T16:02:38.921Z,10.43
2022-11-20T16:05:14.006Z,9.43
2022-11-20T16:07:46.656Z,9.90
2022-11-20T16:10:17.728Z,10.75
2022-11-20T16:13:12.192Z,10.00
2022-11-20T16:15:54.478Z,10.32
2022-11-20T16:18:27.836Z,9.85
2022-11-20T16:20:56.005Z,10.73
2022-11-20T16:23:23.328Z,10.25
2022-11-20T16:25:51.367Z,9.90
2022-11-20T16:28:25.091Z,10.00
2022-11-20T16:30:55.522Z,10.57
2022-11-20T16:33:22.849Z,10.32
2022-11-20T16:35:58.483Z,7.05
2022-11-20T16:38:25.207Z,10.40
2022-11-20T16:40:52.060Z,10.70
2022-11-20T16:43:23.697Z,10.00
2022-11-20T16:45:50.437Z,11.33
2022-11-20T16:48:23.619Z,12.38
2022-11-20T16:50:57.258Z,11.77
2022-11-20T16:53:28.370Z,11.98
2022-11-20T16:55:55.216Z,11.80
2022-11-20T16:58:21.767Z,11.82
2022-11-20T17:03:30.722Z,13.25
2022-11-20T17:05:57.739Z,12.02
2022-11-20T17:08:30.626Z,12.38
2022-11-20T17:10:57.976Z,12.50
2022-11-20T17:13:25.053Z,12.13
2022-11-20T17:15:53.526Z,13.07
2022-11-20T17:18:25.148Z,12.25
2022-11-20T17:20:56.798Z,13.27
2022-11-20T17:23:23.552Z,15.47
2022-11-20T17:25:56.392Z,16.52
2022-11-20T17:28:29.114Z,15.98
2022-11-20T17:31:08.862Z,14.80
2022-11-20T17:33:40.634Z,12.65
2022-11-20T17:36:15.133Z,12.65
2022-11-20T17:38:43.400Z,14.05
2022-11-20T17:41:12.928Z,13.52
2022-11-20T17:43:40.614Z,13.48
2022-11-20T17:46:09.757Z,14.00
2022-11-20T17:48:44.338Z,13.85
2022-11-20T17:51:39.328Z,14.65
2022-11-20T17:54:09.892Z,13.80
2022-11-20T17:56:56.862Z,14.32
2022-11-20T17:59:33.526Z,14.25
2022-11-20T18:02:22.697Z,14.45
2022-11-20T18:04:51.865Z,13.68
2022-11-20T18:07:19.637Z,14.05
2022-11-20T18:09:46.406Z,14.00
2022-11-20T18:12:13.378Z,13.05
2022-11-20T18:14:41.520Z,13.15
2022-11-20T18:17:13.662Z,17.48
2022-11-20T18:20:14.153Z,13.77
2022-11-20T18:22:39.992Z,14.68
2022-11-20T18:25:12.992Z,15.55
2022-11-20T18:27:39.982Z,15.50
2022-11-20T18:30:08.329Z,15.15
2022-11-20T18:32:36.297Z,15.02
2022-11-20T18:35:03.876Z,13.63
2022-11-20T18:37:32.336Z,13.70
2022-11-20T18:40:01.459Z,12.63
2022-11-20T18:42:47.163Z,12.68
2022-11-20T18:45:15.609Z,12.05
2022-11-20T18:47:47.303Z,12.02
2022-11-20T18:50:14.243Z,11.45
2022-11-20T18:52:46.248Z,11.05
2022-11-20T18:55:13.462Z,14.02
2022-11-20T18:57:40.645Z,13.82
2022-11-20T19:02:55.006Z,14.05
2022-11-20T19:05:28.246Z,11.35
2022-11-20T19:10:45.909Z,11.95
2022-11-20T19:13:12.629Z,11.75
2022-11-20T19:15:42.436Z,11.10
2022-11-20T19:18:10.039Z,11.00
2022-11-20T19:20:37.097Z,11.23
2022-11-20T19:23:03.753Z,11.65
2022-11-20T19:25:36.677Z,11.32
2022-11-20T19:28:05.073Z,10.32
2022-11-20T19:30:34.809Z,11.35
2022-11-20T19:33:01.719Z,11.43
2022-11-20T19:35:28.369Z,11.20
2022-11-20T19:38:04.095Z,11.48
2022-11-20T19:40:32.406Z,10.30
2022-11-20T19:43:01.631Z,11.23
2022-11-20T19:45:28.269Z,10.57
2022-11-20T19:48:10.382Z,10.45
2022-11-20T19:50:37.043Z,11.25
2022-11-20T19:53:03.621Z,11.27
2022-11-20T19:55:30.462Z,11.68
2022-11-20T19:57:57.086Z,11.68
2022-11-20T20:00:31.121Z,11.27
2022-11-20T20:02:59.189Z,10.52
2022-11-20T20:05:26.008Z,9.93
2022-11-20T20:07:52.688Z,8.70
2022-11-20T20:10:20.393Z,10.05
2022-11-20T20:12:47.134Z,9.15
2022-11-20T20:15:13.957Z,8.35
2022-11-20T20:17:41.845Z,9.32
2022-11-20T20:20:09.129Z,9.60
2022-11-20T20:22:35.892Z,9.32
2022-11-20T20:25:03.308Z,9.38
2022-11-20T20:27:36.114Z,10.10
2022-11-20T20:30:04.760Z,9.88
2022-11-20T20:32:33.528Z,9.15
2022-11-20T20:35:04.978Z,9.93
2022-11-20T20:37:33.130Z,9.85
2022-11-20T20:39:59.836Z,8.88
2022-11-20T20:42:30.227Z,9.55
2022-11-20T20:45:11.893Z,9.85
2022-11-20T20:47:40.245Z,9.50
2022-11-20T20:50:10.113Z,9.90
2022-11-20T20:52:37.069Z,9.35
2022-11-20T20:55:10.220Z,10.65
2022-11-20T20:57:37.449Z,10.05
2022-11-20T21:00:09.052Z,9.80
2022-11-20T21:02:40.347Z,9.47
2022-11-20T21:05:10.717Z,10.18
2022-11-20T21:08:02.164Z,10.68
2022-11-20T21:10:30.578Z,9.80
2022-11-20T21:12:57.331Z,10.00
2022-11-20T21:15:27.090Z,9.35
2022-11-20T21:17:53.806Z,9.68
2022-11-20T21:20:41.952Z,9.10
2022-11-20T21:23:10.255Z,8.68
2022-11-20T21:25:38.730Z,8.45
2022-11-20T21:28:07.851Z,8.52
2022-11-20T21:30:36.803Z,9.38
2022-11-20T21:33:03.691Z,9.02
2022-11-20T21:35:34.170Z,9.55
2022-11-20T21:38:01.283Z,8.63
2022-11-20T21:40:30.755Z,9.25
2022-11-20T21:43:00.407Z,9.20
2022-11-20T21:45:27.799Z,8.55
2022-11-20T21:47:57.313Z,9.48
2022-11-20T21:50:27.235Z,9.93
2022-11-20T21:52:54.392Z,9.68
2022-11-20T21:55:21.112Z,8.93
2022-11-20T21:57:50.736Z,8.40
2022-11-20T22:00:17.535Z,8.20
2022-11-20T22:02:44.164Z,8.80
2022-11-20T22:05:10.743Z,8.50
2022-11-20T22:07:37.446Z,8.15
2022-11-20T22:10:05.424Z,7.75
2022-11-20T22:12:32.175Z,8.88
2022-11-20T22:14:58.987Z,8.65
2022-11-20T22:17:46.456Z,8.57
2022-11-20T22:20:17.112Z,7.75
2022-11-20T22:22:45.084Z,7.43
2022-11-20T22:25:14.253Z,7.00
2022-11-20T22:27:40.934Z,7.43
2022-11-20T22:30:08.549Z,7.43
2022-11-20T22:32:35.199Z,7.57
2022-11-20T22:35:05.935Z,8.30
2022-11-20T22:37:34.497Z,7.72
2022-11-20T22:40:01.303Z,7.65
2022-11-20T22:42:30.499Z,6.75
2022-11-20T22:44:57.575Z,6.97
2022-11-20T22:47:24.225Z,6.63
2022-11-20T22:49:53.835Z,7.20
2022-11-20T22:52:23.506Z,7.00
2022-11-20T22:54:53.231Z,12.35
2022-11-20T22:57:20.228Z,13.80
2022-11-20T22:59:50.017Z,11.75
2022-11-20T23:02:19.720Z,12.85
2022-11-20T23:04:57.579Z,13.02
2022-11-20T23:07:26.231Z,13.00
2022-11-20T23:09:53.141Z,13.40
2022-11-20T23:12:19.811Z,13.60
2022-11-20T23:14:46.520Z,12.40
2022-11-20T23:17:13.294Z,10.52
2022-11-20T23:19:40.019Z,9.85
2022-11-20T23:22:06.642Z,9.07
2022-11-20T23:24:33.383Z,6.60
2022-11-20T23:27:05.191Z,6.57
2022-11-20T23:29:35.787Z,6.07
2022-11-20T23:32:04.921Z,6.57
2022-11-20T23:34:35.139Z,6.35
2022-11-20T23:37:01.968Z,5.90
2022-11-20T23:39:28.956Z,5.88
2022-11-20T23:41:55.679Z,5.70
2022-11-20T23:44:26.208Z,5.47
2022-11-20T23:46:55.257Z,5.82
2022-11-20T23:49:22.501Z,5.35
2022-11-20T23:51:49.123Z,5.72
2022-11-20T23:54:18.849Z,5.82
2022-11-20T23:56:45.494Z,6.20
2022-11-20T23:59:14.637Z,5.55
